Terminal Aerodrome Forecast
Issued by NWS Charleston, WV

Current Version | Previous Version | Graphics & Text | Print | Product List | Glossary On
Versions: 1 2 3 4 5 6 7 8 9 10 11 12 13 14 15 16 17 18 19 20 21 22 23 24
000
FTUS41 KRLX 261950 AAA
TAFEKN
TAF AMD
KEKN 261950Z 2620/2718 19006KT P6SM VCTS BKN035CB
      TEMPO 2620/2622 4SM SHRA BKN025
     FM270300 19005KT 5SM SHRA BR VCTS SCT030CB BKN080
     FM270900 20004KT 5SM -SHRA BR BKN025
     FM271700 23006KT P6SM SHRA VCTS BKN040CB=

USA.gov is the U.S. government's official web portal to all federal, state and local government web resources and services.